createdAt,value
2018-02-23T00:01:32.845Z,2.00
2018-02-23T00:04:01.839Z,2.00
2018-02-23T00:06:29.411Z,2.10
2018-02-23T00:08:56.970Z,2.00
2018-02-23T00:11:25.648Z,2.00
2018-02-23T00:13:53.182Z,2.00
2018-02-23T00:16:20.719Z,2.00
2018-02-23T00:18:49.098Z,1.80
2018-02-23T00:21:17.371Z,1.80
2018-02-23T00:23:45.710Z,1.80
2018-02-23T00:26:14.001Z,1.70
2018-02-23T00:28:41.569Z,1.80
2018-02-23T00:31:09.187Z,1.60
2018-02-23T00:33:36.722Z,1.70
2018-02-23T00:36:04.317Z,1.70
2018-02-23T00:38:32.477Z,1.70
2018-02-23T00:40:59.996Z,1.80
2018-02-23T00:43:27.524Z,1.70
2018-02-23T00:45:56.430Z,1.80
2018-02-23T00:48:23.960Z,2.00
2018-02-23T00:50:51.528Z,2.00
2018-02-23T00:53:19.588Z,1.90
2018-02-23T00:55:47.154Z,1.70
2018-02-23T00:58:15.623Z,1.80
2018-02-23T01:00:46.004Z,1.90
2018-02-23T01:03:14.409Z,2.00
2018-02-23T01:05:41.991Z,1.90
2018-02-23T01:08:11.091Z,1.90
2018-02-23T01:10:39.591Z,2.00
2018-02-23T01:13:07.112Z,2.00
2018-02-23T01:15:34.640Z,2.00
2018-02-23T01:18:02.968Z,2.00
2018-02-23T01:20:30.527Z,2.00
2018-02-23T01:22:58.068Z,2.00
2018-02-23T01:25:25.646Z,1.90
2018-02-23T01:27:53.230Z,2.00
2018-02-23T01:30:20.808Z,2.00
2018-02-23T01:32:49.144Z,2.00
2018-02-23T01:35:17.432Z,1.90
2018-02-23T01:37:44.974Z,1.90
2018-02-23T01:40:12.542Z,1.70
2018-02-23T01:42:40.990Z,1.80
2018-02-23T01:45:09.106Z,1.80
2018-02-23T01:47:37.452Z,1.70
2018-02-23T01:50:07.383Z,1.60
2018-02-23T01:52:34.972Z,1.60
2018-02-23T01:55:02.700Z,1.60
2018-02-23T01:57:30.262Z,1.50
2018-02-23T01:59:58.584Z,1.60
2018-02-23T02:02:26.926Z,1.50
2018-02-23T02:04:54.477Z,1.50
2018-02-23T02:07:22.276Z,1.60
2018-02-23T02:09:49.824Z,1.60
2018-02-23T02:12:18.643Z,1.50
2018-02-23T02:14:46.987Z,1.50
2018-02-23T02:17:14.552Z,1.50
2018-02-23T02:19:42.103Z,1.50
2018-02-23T02:22:09.712Z,1.50
2018-02-23T02:24:37.268Z,1.50
2018-02-23T02:27:04.812Z,1.60
2018-02-23T02:29:32.424Z,1.60
2018-02-23T02:31:59.960Z,1.60
2018-02-23T02:34:28.339Z,1.70
2018-02-23T02:36:55.919Z,1.60
2018-02-23T02:39:24.121Z,1.70
2018-02-23T02:41:51.719Z,1.80
2018-02-23T02:44:20.115Z,1.80
2018-02-23T02:46:47.794Z,1.80
2018-02-23T02:49:15.368Z,1.60
2018-02-23T02:51:42.915Z,1.30
2018-02-23T02:54:10.462Z,1.30
2018-02-23T02:56:38.148Z,1.30
2018-02-23T02:59:07.059Z,1.40
2018-02-23T03:01:34.604Z,1.50
2018-02-23T03:04:02.172Z,1.30
2018-02-23T03:06:29.721Z,1.40
2018-02-23T03:08:57.236Z,1.50
2018-02-23T03:11:25.549Z,1.40
2018-02-23T03:13:54.646Z,1.40
2018-02-23T03:16:22.169Z,1.30
2018-02-23T03:18:49.778Z,1.30
2018-02-23T03:21:17.322Z,1.30
2018-02-23T03:23:44.887Z,1.30
2018-02-23T03:26:13.127Z,1.30
2018-02-23T03:28:41.458Z,1.20
2018-02-23T03:31:09.177Z,1.20
2018-02-23T03:33:37.579Z,1.20
2018-02-23T03:49:00.169Z,1.20
2018-02-23T03:51:28.155Z,0.80
2018-02-23T03:53:55.708Z,0.80
2018-02-23T03:56:24.050Z,0.80
2018-02-23T03:58:51.604Z,0.80
2018-02-23T04:01:19.122Z,0.90
2018-02-23T04:03:47.534Z,0.80
2018-02-23T04:06:15.070Z,0.80
2018-02-23T04:08:43.393Z,1.00
2018-02-23T04:11:10.959Z,1.00
2018-02-23T04:13:38.491Z,1.10
2018-02-23T04:16:06.052Z,1.10
2018-02-23T04:18:34.478Z,0.90
2018-02-23T04:21:02.009Z,0.90
2018-02-23T04:23:30.388Z,0.80
2018-02-23T04:25:58.390Z,0.90
2018-02-23T04:28:25.937Z,1.00
2018-02-23T04:30:54.267Z,1.10
2018-02-23T04:33:21.821Z,1.10
2018-02-23T04:35:49.375Z,1.10
2018-02-23T04:38:16.975Z,1.00
2018-02-23T04:40:44.586Z,0.90
2018-02-23T04:43:12.882Z,1.00
2018-02-23T04:45:40.451Z,0.90
2018-02-23T04:48:08.014Z,1.00
2018-02-23T04:50:35.563Z,0.80
2018-02-23T04:53:03.524Z,1.00
2018-02-23T04:55:31.118Z,1.00
2018-02-23T04:57:58.723Z,1.00
2018-02-23T05:00:27.938Z,0.90
2018-02-23T05:02:55.642Z,0.90
2018-02-23T05:05:23.185Z,1.00
2018-02-23T05:07:51.568Z,0.90
2018-02-23T05:10:19.180Z,0.90
2018-02-23T05:12:47.506Z,1.00
2018-02-23T05:15:15.039Z,1.00
2018-02-23T05:17:42.607Z,1.10
2018-02-23T05:20:10.135Z,0.90
2018-02-23T05:22:37.696Z,1.00
2018-02-23T05:25:07.307Z,1.10
2018-02-23T05:27:34.909Z,1.10
2018-02-23T05:30:02.450Z,1.00
2018-02-23T05:32:30.024Z,1.00
2018-02-23T05:34:57.694Z,0.90
2018-02-23T05:37:26.104Z,0.90
2018-02-23T05:39:53.686Z,0.90
2018-02-23T05:42:22.023Z,0.80
2018-02-23T05:44:49.600Z,0.70
2018-02-23T05:47:17.150Z,0.90
2018-02-23T05:49:45.350Z,0.80
2018-02-23T05:52:12.889Z,0.80
2018-02-23T05:54:40.447Z,0.70
2018-02-23T05:57:08.044Z,0.70
2018-02-23T05:59:35.560Z,0.50
2018-02-23T06:02:03.422Z,0.60
2018-02-23T06:04:31.072Z,0.70
2018-02-23T06:06:58.641Z,0.70
2018-02-23T06:09:26.172Z,0.60
2018-02-23T06:11:53.765Z,0.70
2018-02-23T06:14:21.310Z,0.80
2018-02-23T06:16:48.839Z,0.90
2018-02-23T06:19:23.557Z,0.80
2018-02-23T06:21:51.908Z,1.00
2018-02-23T06:24:19.456Z,1.00
2018-02-23T06:26:47.101Z,1.00
2018-02-23T06:29:14.637Z,1.00
2018-02-23T06:31:42.221Z,1.10
2018-02-23T06:34:09.796Z,1.10
2018-02-23T06:36:37.382Z,0.90
2018-02-23T06:39:05.678Z,0.90
2018-02-23T06:41:35.897Z,0.90
2018-02-23T06:44:04.215Z,1.00
2018-02-23T06:46:32.991Z,1.00
2018-02-23T06:49:00.603Z,0.80
2018-02-23T06:51:28.171Z,0.90
2018-02-23T06:53:55.769Z,0.90
2018-02-23T06:56:23.332Z,0.90
2018-02-23T06:58:51.419Z,1.00
2018-02-23T07:01:18.989Z,1.00
2018-02-23T07:03:46.569Z,1.00
2018-02-23T07:06:14.995Z,0.90
2018-02-23T07:08:42.547Z,0.90
2018-02-23T07:11:11.864Z,1.00
2018-02-23T07:13:39.401Z,0.90
2018-02-23T07:16:06.975Z,0.90
2018-02-23T07:18:34.548Z,1.10
2018-02-23T07:21:03.017Z,1.20
2018-02-23T07:23:30.601Z,0.90
2018-02-23T07:25:58.258Z,1.00
2018-02-23T07:28:26.087Z,0.90
2018-02-23T07:30:53.675Z,0.90
2018-02-23T07:33:21.250Z,0.80
2018-02-23T07:35:48.823Z,0.90
2018-02-23T07:38:16.384Z,0.80
2018-02-23T07:40:44.782Z,0.80
2018-02-23T07:43:12.794Z,0.80
2018-02-23T07:45:40.344Z,0.90
2018-02-23T07:48:08.644Z,0.90
2018-02-23T07:50:36.544Z,0.90
2018-02-23T07:53:04.345Z,0.90
2018-02-23T07:55:32.466Z,0.80
2018-02-23T07:58:00.015Z,0.90
2018-02-23T08:00:27.612Z,0.80
2018-02-23T08:02:55.199Z,0.60
2018-02-23T08:05:23.530Z,0.70
2018-02-23T08:07:51.189Z,0.70
2018-02-23T08:10:18.733Z,0.60
2018-02-23T08:12:46.337Z,0.70
2018-02-23T08:15:14.787Z,0.80
2018-02-23T08:17:42.361Z,0.70
2018-02-23T08:20:09.921Z,0.60
2018-02-23T08:22:38.049Z,0.80
2018-02-23T08:25:07.667Z,0.70
2018-02-23T08:27:35.212Z,0.70
2018-02-23T08:30:08.065Z,1.00
2018-02-23T08:32:37.114Z,1.00
2018-02-23T08:35:08.187Z,1.00
2018-02-23T08:50:31.418Z,1.00
2018-02-23T08:52:59.829Z,0.50
2018-02-23T08:55:28.872Z,0.60
2018-02-23T08:57:57.284Z,0.70
2018-02-23T09:00:27.126Z,0.80
2018-02-23T09:02:55.499Z,1.10
2018-02-23T09:05:23.084Z,1.10
2018-02-23T09:07:51.839Z,1.20
2018-02-23T09:10:19.484Z,1.20
2018-02-23T09:12:49.258Z,1.40
2018-02-23T09:15:18.132Z,1.30
2018-02-23T09:17:47.133Z,1.20
2018-02-23T09:20:15.076Z,1.30
2018-02-23T09:22:43.542Z,1.10
2018-02-23T09:25:11.983Z,1.10
2018-02-23T09:27:40.094Z,1.20
2018-02-23T09:30:08.744Z,1.10
2018-02-23T09:32:38.161Z,1.10
2018-02-23T09:35:07.674Z,1.20
2018-02-23T09:37:36.018Z,1.30
2018-02-23T09:40:05.423Z,1.40
2018-02-23T09:55:28.511Z,1.40
2018-02-23T09:57:56.077Z,1.20
2018-02-23T10:00:23.593Z,1.20
2018-02-23T10:02:51.147Z,1.30
2018-02-23T10:05:18.704Z,1.30
2018-02-23T10:10:51.973Z,1.50
2018-02-23T10:13:19.560Z,1.60
2018-02-23T10:15:48.152Z,1.70
2018-02-23T10:18:15.770Z,1.50
2018-02-23T10:20:45.255Z,1.70
2018-02-23T10:23:13.557Z,1.70
2018-02-23T10:25:41.135Z,1.70
2018-02-23T10:28:08.722Z,1.80
2018-02-23T10:30:36.269Z,1.70
2018-02-23T10:33:04.505Z,1.80
2018-02-23T10:35:34.771Z,1.70
2018-02-23T10:38:02.618Z,1.60
2018-02-23T10:40:30.178Z,1.70
2018-02-23T10:42:58.505Z,1.70
2018-02-23T10:45:27.288Z,1.70
2018-02-23T10:47:54.839Z,1.50
2018-02-23T10:50:23.211Z,1.70
2018-02-23T10:52:50.815Z,1.80
2018-02-23T10:55:18.406Z,1.80
2018-02-23T10:57:46.647Z,1.90
2018-02-23T11:00:14.325Z,1.80
2018-02-23T11:02:41.979Z,2.00
2018-02-23T11:05:10.520Z,2.10
2018-02-23T11:07:38.252Z,2.10
2018-02-23T11:10:08.012Z,2.20
2018-02-23T11:12:37.094Z,2.50
2018-02-23T11:15:06.312Z,2.40
2018-02-23T11:17:33.882Z,2.30
2018-02-23T11:20:02.228Z,2.40
2018-02-23T11:22:29.779Z,2.40
2018-02-23T11:24:57.392Z,2.20
2018-02-23T11:27:26.432Z,2.20
2018-02-23T11:29:54.255Z,2.20
2018-02-23T11:32:21.854Z,2.20
2018-02-23T11:34:50.173Z,2.30
2018-02-23T11:37:17.801Z,2.40
2018-02-23T11:39:46.121Z,2.50
2018-02-23T11:42:14.320Z,2.60
2018-02-23T11:44:41.992Z,2.70
2018-02-23T11:47:10.163Z,2.80
2018-02-23T11:49:37.776Z,2.80
2018-02-23T11:52:05.397Z,2.80
2018-02-23T11:54:32.972Z,2.70
2018-02-23T11:57:01.202Z,2.90
2018-02-23T11:59:28.792Z,2.90
2018-02-23T12:01:56.619Z,3.00
2018-02-23T12:04:25.780Z,3.20
2018-02-23T12:06:53.463Z,3.20
2018-02-23T12:09:21.793Z,3.20
2018-02-23T12:11:49.348Z,3.20
2018-02-23T12:14:17.130Z,3.30
2018-02-23T12:16:46.185Z,3.40
2018-02-23T12:19:13.822Z,3.50
2018-02-23T12:21:41.411Z,3.40
2018-02-23T12:24:09.723Z,3.30
2018-02-23T12:26:37.674Z,3.20
2018-02-23T12:29:05.250Z,3.10
2018-02-23T12:31:32.807Z,3.20
2018-02-23T12:34:00.685Z,3.10
2018-02-23T12:36:31.315Z,3.10
2018-02-23T12:39:01.092Z,3.20
2018-02-23T12:41:28.870Z,3.20
2018-02-23T12:43:56.480Z,3.40
2018-02-23T12:46:25.135Z,3.40
2018-02-23T12:48:52.812Z,3.30
2018-02-23T12:51:20.410Z,3.20
2018-02-23T12:53:49.564Z,3.20
2018-02-23T12:56:17.665Z,3.20
2018-02-23T12:58:45.987Z,3.30
2018-02-23T13:01:14.832Z,3.30
2018-02-23T13:03:42.414Z,3.40
2018-02-23T13:06:10.452Z,3.40
2018-02-23T13:08:38.926Z,3.40
2018-02-23T13:11:07.300Z,3.40
2018-02-23T13:13:35.723Z,3.30
2018-02-23T13:16:04.000Z,3.30
2018-02-23T13:18:31.568Z,3.40
2018-02-23T13:20:59.160Z,3.30
2018-02-23T13:23:26.965Z,3.30
2018-02-23T13:25:55.528Z,3.40
2018-02-23T13:28:28.674Z,3.40
2018-02-23T13:30:57.011Z,3.40
2018-02-23T13:33:26.160Z,3.40
2018-02-23T13:35:53.806Z,3.30
2018-02-23T13:38:21.504Z,3.40
2018-02-23T13:40:55.072Z,3.40
2018-02-23T13:43:23.481Z,3.40
2018-02-23T13:45:51.485Z,3.30
2018-02-23T13:48:20.923Z,3.10
2018-02-23T13:50:49.425Z,3.10
2018-02-23T13:53:17.961Z,3.20
2018-02-23T13:55:46.433Z,3.30
2018-02-23T13:58:14.161Z,3.30
2018-02-23T14:00:43.764Z,3.30
2018-02-23T14:03:11.554Z,3.30
2018-02-23T14:05:40.607Z,3.20
2018-02-23T14:08:08.660Z,3.20
2018-02-23T14:10:36.278Z,3.20
2018-02-23T14:13:03.905Z,2.90
2018-02-23T14:15:31.768Z,2.90
2018-02-23T14:17:59.901Z,2.90
2018-02-23T14:20:28.103Z,3.00
2018-02-23T14:22:55.675Z,2.90
2018-02-23T14:25:23.240Z,3.00
2018-02-23T14:27:50.917Z,3.00
2018-02-23T14:30:18.543Z,3.00
2018-02-23T14:32:47.189Z,2.90
2018-02-23T14:35:14.753Z,2.90
2018-02-23T14:37:42.821Z,2.80
2018-02-23T14:40:11.884Z,2.80
2018-02-23T14:42:39.471Z,2.80
2018-02-23T14:45:07.122Z,2.90
2018-02-23T14:47:34.831Z,2.90
2018-02-23T14:50:14.084Z,2.80
2018-02-23T14:52:42.600Z,2.90
2018-02-23T14:55:10.134Z,3.00
2018-02-23T14:57:37.715Z,3.00
2018-02-23T15:00:06.525Z,3.00
2018-02-23T15:02:34.060Z,2.90
2018-02-23T15:05:01.672Z,2.90
2018-02-23T15:07:30.731Z,2.90
2018-02-23T15:09:58.287Z,3.00
2018-02-23T15:12:25.847Z,2.90
2018-02-23T15:14:54.313Z,2.80
2018-02-23T15:17:22.074Z,2.80
2018-02-23T15:19:50.307Z,2.80
2018-02-23T15:22:18.637Z,2.80
2018-02-23T15:24:47.234Z,2.80
2018-02-23T15:27:14.842Z,2.80
2018-02-23T15:29:43.227Z,2.90
2018-02-23T15:32:30.645Z,2.90
2018-02-23T15:34:58.999Z,2.80
2018-02-23T15:37:27.491Z,2.70
2018-02-23T15:39:55.160Z,2.70
2018-02-23T15:42:24.151Z,2.70
2018-02-23T15:44:52.483Z,2.60
2018-02-23T15:47:23.014Z,2.60
2018-02-23T15:50:07.618Z,2.60
2018-02-23T15:52:35.288Z,2.60
2018-02-23T15:55:04.244Z,2.40
2018-02-23T15:57:33.500Z,2.40
2018-02-23T16:00:01.108Z,2.50
2018-02-23T16:02:28.700Z,2.40
2018-02-23T16:04:56.489Z,2.30
2018-02-23T16:07:24.977Z,2.10
2018-02-23T16:09:52.537Z,2.20
2018-02-23T16:12:21.158Z,2.30
2018-02-23T16:14:48.724Z,2.40
2018-02-23T16:17:16.333Z,2.30
2018-02-23T16:19:43.988Z,2.30
2018-02-23T16:22:12.215Z,2.40
2018-02-23T16:24:39.844Z,2.30
2018-02-23T16:27:07.924Z,2.20
2018-02-23T16:29:35.525Z,2.20
2018-02-23T16:32:03.691Z,2.30
2018-02-23T16:34:31.291Z,2.40
2018-02-23T16:36:59.243Z,2.40
2018-02-23T16:39:26.811Z,2.40
2018-02-23T16:41:55.174Z,2.40
2018-02-23T16:44:22.751Z,2.40
2018-02-23T16:46:51.092Z,2.50
2018-02-23T16:49:18.904Z,2.50
2018-02-23T16:51:47.259Z,2.40
2018-02-23T16:54:15.561Z,2.50
2018-02-23T16:56:43.730Z,2.40
2018-02-23T16:59:11.319Z,2.50
2018-02-23T17:01:38.990Z,2.40
2018-02-23T17:04:06.768Z,2.40
2018-02-23T17:06:34.807Z,2.40
2018-02-23T17:09:02.392Z,2.30
2018-02-23T17:11:30.856Z,2.20
2018-02-23T17:13:59.037Z,2.20
2018-02-23T17:16:26.626Z,2.00
2018-02-23T17:18:55.322Z,1.90
2018-02-23T17:21:25.067Z,1.70
2018-02-23T17:23:52.686Z,1.70
2018-02-23T17:26:20.274Z,1.50
2018-02-23T17:28:49.281Z,1.40
2018-02-23T17:31:18.167Z,1.40
2018-02-23T17:33:45.740Z,1.40
2018-02-23T17:36:14.712Z,1.40
2018-02-23T17:38:42.357Z,1.50
2018-02-23T17:41:10.002Z,1.50
2018-02-23T17:43:38.027Z,1.40
2018-02-23T17:46:05.658Z,1.40
2018-02-23T17:48:34.978Z,1.40
2018-02-23T17:51:04.185Z,1.40
2018-02-23T17:53:32.048Z,1.50
2018-02-23T17:55:59.848Z,1.50
2018-02-23T17:58:28.090Z,1.50
2018-02-23T18:00:56.911Z,1.30
2018-02-23T18:03:26.308Z,1.40
2018-02-23T18:05:55.332Z,1.50
2018-02-23T18:08:23.172Z,1.50
2018-02-23T18:10:50.963Z,1.60
2018-02-23T18:13:18.735Z,1.70
2018-02-23T18:15:46.987Z,1.80
2018-02-23T18:18:14.757Z,1.90
2018-02-23T18:20:43.457Z,1.90
2018-02-23T18:23:11.394Z,1.90
2018-02-23T18:25:39.706Z,1.80
2018-02-23T18:28:07.401Z,1.80
2018-02-23T18:30:35.430Z,1.70
2018-02-23T18:33:03.290Z,1.70
2018-02-23T18:35:31.687Z,1.70
2018-02-23T18:38:01.116Z,1.70
2018-02-23T18:40:29.810Z,1.70
2018-02-23T18:42:57.422Z,1.70
2018-02-23T18:45:26.148Z,1.50
2018-02-23T18:47:55.205Z,1.40
2018-02-23T18:50:22.735Z,1.40
2018-02-23T18:52:50.297Z,1.40
2018-02-23T18:55:17.893Z,1.50
2018-02-23T18:57:46.521Z,1.50
2018-02-23T19:00:14.650Z,1.30
2018-02-23T19:02:42.693Z,1.30
2018-02-23T19:05:11.495Z,1.30
2018-02-23T19:07:40.378Z,1.30
2018-02-23T19:10:09.414Z,1.30
2018-02-23T19:12:37.543Z,1.10
2018-02-23T19:15:07.409Z,1.10
2018-02-23T19:17:35.748Z,1.10
2018-02-23T19:20:05.097Z,1.10
2018-02-23T19:32:13.486Z,1.20
2018-02-23T19:34:41.123Z,0.80
2018-02-23T19:37:08.860Z,0.80
2018-02-23T19:39:36.400Z,0.80
2018-02-23T19:42:03.975Z,0.80
2018-02-23T19:44:31.908Z,0.70
2018-02-23T19:46:59.473Z,0.90
2018-02-23T19:49:27.108Z,0.80
2018-02-23T19:51:55.118Z,1.00
2018-02-23T19:54:23.108Z,1.00
2018-02-23T19:56:51.159Z,0.90
2018-02-23T19:59:19.148Z,1.10
2018-02-23T20:01:47.584Z,1.10
2018-02-23T20:04:16.399Z,1.10
2018-02-23T20:06:44.167Z,1.10
2018-02-23T20:09:12.753Z,1.20
2018-02-23T20:11:40.406Z,1.20
2018-02-23T20:14:07.997Z,1.00
2018-02-23T20:16:35.737Z,1.00
2018-02-23T20:19:03.332Z,1.10
2018-02-23T20:21:31.263Z,1.10
2018-02-23T20:23:58.940Z,1.20
2018-02-23T20:26:27.273Z,1.20
2018-02-23T20:28:55.546Z,1.00
2018-02-23T20:31:25.710Z,1.00
2018-02-23T20:33:53.697Z,0.80
2018-02-23T20:36:21.306Z,0.90
2018-02-23T20:38:50.395Z,0.80
2018-02-23T20:41:18.203Z,0.80
2018-02-23T20:43:46.416Z,0.90
2018-02-23T20:46:14.923Z,0.90
2018-02-23T20:48:43.932Z,1.00
2018-02-23T20:51:11.891Z,1.00
2018-02-23T20:53:40.071Z,1.10
2018-02-23T20:56:07.887Z,1.10
2018-02-23T20:58:35.600Z,1.10
2018-02-23T21:01:03.276Z,1.00
2018-02-23T21:03:32.074Z,1.20
2018-02-23T21:06:00.412Z,1.20
2018-02-23T21:08:28.936Z,1.20
2018-02-23T21:10:57.090Z,1.20
2018-02-23T21:13:26.457Z,1.30
2018-02-23T21:15:54.043Z,1.20
2018-02-23T21:18:22.607Z,1.00
2018-02-23T21:20:51.059Z,1.00
2018-02-23T21:23:19.996Z,0.90
2018-02-23T21:25:48.525Z,1.00
2018-02-23T21:28:16.168Z,0.90
2018-02-23T21:30:43.863Z,0.70
2018-02-23T21:33:11.601Z,0.70
2018-02-23T21:35:39.900Z,0.70
2018-02-23T21:38:07.813Z,0.60
2018-02-23T21:40:35.407Z,0.50
2018-02-23T21:43:03.197Z,0.50
2018-02-23T21:45:31.806Z,0.40
2018-02-23T21:48:00.367Z,0.60
2018-02-23T21:50:27.901Z,0.60
2018-02-23T21:52:55.447Z,0.60
2018-02-23T21:55:24.453Z,0.70
2018-02-23T21:57:52.411Z,0.60
2018-02-23T22:00:21.067Z,0.70
2018-02-23T22:02:48.647Z,0.50
2018-02-23T22:05:16.340Z,0.60
2018-02-23T22:07:44.293Z,0.60
2018-02-23T22:10:13.595Z,0.50
2018-02-23T22:12:41.164Z,0.50
2018-02-23T22:15:08.780Z,0.50
2018-02-23T22:17:36.500Z,0.50
2018-02-23T22:20:06.061Z,0.60
2018-02-23T22:22:34.402Z,0.50
2018-02-23T22:25:01.976Z,0.50
2018-02-23T22:27:30.111Z,0.50
2018-02-23T22:29:58.231Z,0.50
2018-02-23T22:32:27.443Z,0.40
2018-02-23T22:34:55.788Z,0.30
2018-02-23T22:37:25.276Z,0.30
2018-02-23T22:39:54.460Z,0.30
2018-02-23T22:42:22.010Z,0.30
2018-02-23T22:44:50.330Z,0.20
2018-02-23T22:47:19.315Z,0.30
2018-02-23T22:49:47.911Z,0.40
2018-02-23T22:52:15.564Z,0.40
2018-02-23T22:54:44.639Z,0.30
2018-02-23T22:57:12.289Z,0.40
2018-02-23T22:59:40.462Z,0.40
2018-02-23T23:02:08.120Z,0.40
2018-02-23T23:04:36.488Z,0.30
2018-02-23T23:07:06.093Z,0.40
2018-02-23T23:09:34.252Z,0.50
2018-02-23T23:12:01.806Z,0.40
2018-02-23T23:14:30.261Z,0.20
2018-02-23T23:16:59.338Z,0.20
2018-02-23T23:19:28.260Z,0.40
2018-02-23T23:21:57.224Z,0.30
2018-02-23T23:24:24.783Z,0.30
2018-02-23T23:26:52.701Z,0.10
2018-02-23T23:29:21.151Z,0.10
2018-02-23T23:31:48.909Z,0.10
2018-02-23T23:34:16.446Z,0.20
2018-02-23T23:36:44.694Z,0.30
2018-02-23T23:39:12.288Z,0.20
2018-02-23T23:41:40.537Z,0.20
2018-02-23T23:44:08.958Z,0.20
2018-02-23T23:46:36.596Z,0.20
2018-02-23T23:49:04.176Z,0.20
2018-02-23T23:51:31.718Z,0.20
2018-02-23T23:53:59.775Z,0.20
2018-02-23T23:56:27.378Z,0.30
2018-02-23T23:58:54.934Z,0.30
